DRRN/NIM METAR and TAF weather

Enter ICAO airport designator
Station Type Date Time Source
DRRN METAR 2021/09/28 15:00 UTC NOAA

DRRN 281500Z 20006KT 140V250 9999 FEW030 38/13 Q1008 NOSIG


Station Type Date Time Source
DRRN Decoded METAR 2021/09/28 15:00 UTC NOAA

Niamey-Aero, Niger (DRRN) 13-29N 002-10E 227M
Sep 28, 2021 - 11:00 AM EDT / 2021.09.28 1500 UTC
Wind: from the SSW (200 degrees) at 7 MPH (6 KT) (direction variable):0
Visibility: greater than 7 mile(s):0
Sky conditions: mostly clear
Temperature: 100 F (38 C)
Heat index: 98.2 F (36.8 C):1
Dew Point: 55 F (13 C)
Relative Humidity: 22%
Pressure (altimeter): 29.77 in. Hg (1008 hPa)
ob: DRRN 281500Z 20006KT 140V250 9999 FEW030 38/13 Q1008 NOSIG
cycle: 15

Station Type Date Time Source
DRRN TAF 2021/09/28 12:21 UTC NOAA

TAF DRRN 281100Z 2812/2918 22008KT 9999 FEW030 PROB30 2815/2820 TS FEW035CB PROB40 2900/2906 08025G40KT 1200 SQ BLDU TSRA BKN020 SCT030CB

Example: see airport list